Simpson, IL (62985)

11:02 PM CST on February 10, 2016 (GMT -0600)
RAWS | | Change Station
CLOSE
Current Station
Personal Weather Station
Location: Simpson, IL
Elevation: 540 ft
Nearby Weather Stations

Elev 540 ft 37.44 °N, 88.67 °W | Updated 54 minutes ago

Overcast
Overcast
22.0 °F
Feels Like 22.0 °F
N
0.0
Wind Variable Wind from North
Gusts 0.0 mph

Today
High -- | Low -- °F
--% Chance of Precip.
Yesterday
High -- | Low -- °F
Precip. -- in
Pressure 30.17 in
Visibility 10.0 miles
Clouds Overcast 6000 ft
Dew Point 20.0 °F
Humidity 92%
Rainfall in
Snow Depth Not available.
6:50 AM 5:28 PM
Waxing Crescent, 9% visible
METAR KM30 110455Z AUTO 00000KT 10SM OVC060 M04/M05 A3017 RMK AO2 T10401050
Pressure 30.17 in
Visibility 10.0 miles
Clouds Overcast 6000 ft
Dew Point 20.0 °F
Humidity 92%
Rainfall in
Snow Depth Not available.
6:50 AM 5:28 PM
Waxing Crescent, 9% visible
METAR KM30 110455Z AUTO 00000KT 10SM OVC060 M04/M05 A3017 RMK AO2 T10401050

10-Day Weather Forecast

Almanac

Astronomy

Feb. 10, 2016 Rise Set
Actual Time
Civil Twilight
Nautical Twilight
Astronomical Twilight
Moon
Length of Visible Light
Length of Day
Tomorrow will be .
, % of the Moon is Illuminated

Today's Extremes

State Highs State Lows

Community

WunderPhotos

Upload Photos

1,892,016 photos uploaded!

WunderBlog® & News

Nearby

Air Quality

  Air Quality AQ Index Pollutant
Not available.

Snow Depth

Station Depth Elevation

Earthquake Activity

City Distance Mag. Time & Date
Minimum magnitude displayed is 2.5.

Coastal Water Temperatures

Place Temperature

Stations

Nearby Weather Stations

Station Location Temp. Windchill Dew Point Humidity Wind Precip. Elev Updated Type
                   

Watches & Warnings

There are currently no watches in effect.